sensor_id;sensor_type;location;lat;lon;timestamp;temperature;humidity
20650;DHT22;10484;48.736;9.332;2023-05-10T00:00:37;16.10;1.00
20650;DHT22;10484;48.736;9.332;2023-05-10T00:03:02;16.10;1.00
20650;DHT22;10484;48.736;9.332;2023-05-10T00:05:30;16.10;1.00
20650;DHT22;10484;48.736;9.332;2023-05-10T00:07:56;16.10;1.00
20650;DHT22;10484;48.736;9.332;2023-05-10T00:10:21;16.00;1.00
20650;DHT22;10484;48.736;9.332;2023-05-10T00:12:47;16.00;1.00
20650;DHT22;10484;48.736;9.332;2023-05-10T00:15:12;16.00;1.00
20650;DHT22;10484;48.736;9.332;2023-05-10T00:17:38;16.00;1.00
20650;DHT22;10484;48.736;9.332;2023-05-10T00:20:04;16.00;1.00
20650;DHT22;10484;48.736;9.332;2023-05-10T00:22:30;16.00;1.00
20650;DHT22;10484;48.736;9.332;2023-05-10T00:24:57;15.90;1.00
20650;DHT22;10484;48.736;9.332;2023-05-10T00:27:22;15.90;1.00
20650;DHT22;10484;48.736;9.332;2023-05-10T00:29:48;15.80;1.00
20650;DHT22;10484;48.736;9.332;2023-05-10T00:32:13;15.80;1.00
20650;DHT22;10484;48.736;9.332;2023-05-10T00:34:39;15.80;1.00
20650;DHT22;10484;48.736;9.332;2023-05-10T00:37:05;15.80;1.00
20650;DHT22;10484;48.736;9.332;2023-05-10T00:39:30;15.80;1.00
20650;DHT22;10484;48.736;9.332;2023-05-10T00:41:56;15.80;1.00
20650;DHT22;10484;48.736;9.332;2023-05-10T00:44:22;15.70;1.00
20650;DHT22;10484;48.736;9.332;2023-05-10T00:46:48;15.70;1.00
20650;DHT22;10484;48.736;9.332;2023-05-10T00:49:14;15.70;1.00
20650;DHT22;10484;48.736;9.332;2023-05-10T00:51:39;15.70;1.00
20650;DHT22;10484;48.736;9.332;2023-05-10T00:54:05;15.70;1.00
20650;DHT22;10484;48.736;9.332;2023-05-10T00:56:32;15.60;1.00
20650;DHT22;10484;48.736;9.332;2023-05-10T00:58:57;15.60;1.00
20650;DHT22;10484;48.736;9.332;2023-05-10T01:01:23;15.50;1.00
20650;DHT22;10484;48.736;9.332;2023-05-10T01:03:48;15.50;1.00
20650;DHT22;10484;48.736;9.332;2023-05-10T01:06:14;15.50;1.00
20650;DHT22;10484;48.736;9.332;2023-05-10T01:08:40;15.40;1.00
20650;DHT22;10484;48.736;9.332;2023-05-10T01:11:06;15.40;1.00
20650;DHT22;10484;48.736;9.332;2023-05-10T01:13:37;15.40;1.00
20650;DHT22;10484;48.736;9.332;2023-05-10T01:16:03;15.40;1.00
20650;DHT22;10484;48.736;9.332;2023-05-10T01:18:31;15.30;1.00
20650;DHT22;10484;48.736;9.332;2023-05-10T01:21:36;15.30;1.00
20650;DHT22;10484;48.736;9.332;2023-05-10T01:32:41;15.20;1.00
20650;DHT22;10484;48.736;9.332;2023-05-10T01:35:31;15.20;1.00
20650;DHT22;10484;48.736;9.332;2023-05-10T01:38:33;15.20;1.00
20650;DHT22;10484;48.736;9.332;2023-05-10T01:46:48;15.10;1.00
20650;DHT22;10484;48.736;9.332;2023-05-10T01:49:24;15.10;1.00
20650;DHT22;10484;48.736;9.332;2023-05-10T01:51:53;15.00;1.00
20650;DHT22;10484;48.736;9.332;2023-05-10T01:54:23;15.00;1.00
20650;DHT22;10484;48.736;9.332;2023-05-10T01:56:55;15.00;1.00
20650;DHT22;10484;48.736;9.332;2023-05-10T01:59:24;15.00;1.00
20650;DHT22;10484;48.736;9.332;2023-05-10T02:01:52;14.90;1.00
20650;DHT22;10484;48.736;9.332;2023-05-10T02:04:19;14.90;1.00
20650;DHT22;10484;48.736;9.332;2023-05-10T02:06:47;14.90;1.00
20650;DHT22;10484;48.736;9.332;2023-05-10T02:09:14;14.90;1.00
20650;DHT22;10484;48.736;9.332;2023-05-10T02:11:42;14.80;1.00
20650;DHT22;10484;48.736;9.332;2023-05-10T02:14:09;14.80;1.00
20650;DHT22;10484;48.736;9.332;2023-05-10T02:16:38;14.80;1.00
20650;DHT22;10484;48.736;9.332;2023-05-10T02:19:05;14.80;1.00
20650;DHT22;10484;48.736;9.332;2023-05-10T02:21:31;14.70;1.00
20650;DHT22;10484;48.736;9.332;2023-05-10T02:23:59;14.70;1.00
20650;DHT22;10484;48.736;9.332;2023-05-10T02:26:27;14.70;1.00
20650;DHT22;10484;48.736;9.332;2023-05-10T02:28:54;14.70;1.00
20650;DHT22;10484;48.736;9.332;2023-05-10T02:31:22;14.60;1.00
20650;DHT22;10484;48.736;9.332;2023-05-10T02:33:48;14.70;1.00
20650;DHT22;10484;48.736;9.332;2023-05-10T02:36:15;14.60;1.00
20650;DHT22;10484;48.736;9.332;2023-05-10T02:38:41;14.60;1.00
20650;DHT22;10484;48.736;9.332;2023-05-10T02:41:10;14.60;1.00
20650;DHT22;10484;48.736;9.332;2023-05-10T02:43:37;14.60;1.00
20650;DHT22;10484;48.736;9.332;2023-05-10T02:46:04;14.50;1.00
20650;DHT22;10484;48.736;9.332;2023-05-10T02:48:30;14.50;1.00
20650;DHT22;10484;48.736;9.332;2023-05-10T02:51:00;14.50;1.00
20650;DHT22;10484;48.736;9.332;2023-05-10T02:53:33;14.50;1.00
20650;DHT22;10484;48.736;9.332;2023-05-10T02:56:04;14.50;1.00
20650;DHT22;10484;48.736;9.332;2023-05-10T02:58:32;14.40;1.00
20650;DHT22;10484;48.736;9.332;2023-05-10T03:00:59;14.40;1.00
20650;DHT22;10484;48.736;9.332;2023-05-10T03:03:25;14.40;1.00
20650;DHT22;10484;48.736;9.332;2023-05-10T03:05:50;14.40;1.00
20650;DHT22;10484;48.736;9.332;2023-05-10T03:08:16;14.40;1.00
20650;DHT22;10484;48.736;9.332;2023-05-10T03:10:50;14.40;1.00
20650;DHT22;10484;48.736;9.332;2023-05-10T03:16:21;14.40;1.00
20650;DHT22;10484;48.736;9.332;2023-05-10T03:18:55;14.40;1.00
20650;DHT22;10484;48.736;9.332;2023-05-10T03:21:22;14.40;1.00
20650;DHT22;10484;48.736;9.332;2023-05-10T03:23:59;14.40;1.00
20650;DHT22;10484;48.736;9.332;2023-05-10T03:26:26;14.30;1.00
20650;DHT22;10484;48.736;9.332;2023-05-10T03:28:53;14.30;1.00
20650;DHT22;10484;48.736;9.332;2023-05-10T03:31:19;14.30;1.00
20650;DHT22;10484;48.736;9.332;2023-05-10T03:33:47;14.30;1.00
20650;DHT22;10484;48.736;9.332;2023-05-10T03:36:13;14.30;1.00
20650;DHT22;10484;48.736;9.332;2023-05-10T03:38:39;14.30;1.00
20650;DHT22;10484;48.736;9.332;2023-05-10T03:41:04;14.30;1.00
20650;DHT22;10484;48.736;9.332;2023-05-10T03:43:30;14.30;1.00
20650;DHT22;10484;48.736;9.332;2023-05-10T03:45:55;14.30;1.00
20650;DHT22;10484;48.736;9.332;2023-05-10T03:48:21;14.20;1.00
20650;DHT22;10484;48.736;9.332;2023-05-10T03:50:46;14.20;1.00
20650;DHT22;10484;48.736;9.332;2023-05-10T03:53:12;14.20;1.00
20650;DHT22;10484;48.736;9.332;2023-05-10T03:55:37;14.20;1.00
20650;DHT22;10484;48.736;9.332;2023-05-10T03:58:03;14.20;1.00
20650;DHT22;10484;48.736;9.332;2023-05-10T04:00:29;14.20;1.00
20650;DHT22;10484;48.736;9.332;2023-05-10T04:02:55;14.20;1.00
20650;DHT22;10484;48.736;9.332;2023-05-10T04:05:20;14.20;1.00
20650;DHT22;10484;48.736;9.332;2023-05-10T04:07:46;14.20;1.00
20650;DHT22;10484;48.736;9.332;2023-05-10T04:10:12;14.20;1.00
20650;DHT22;10484;48.736;9.332;2023-05-10T04:12:38;14.20;1.00
20650;DHT22;10484;48.736;9.332;2023-05-10T04:15:04;14.20;1.00
20650;DHT22;10484;48.736;9.332;2023-05-10T04:17:29;14.20;1.00
20650;DHT22;10484;48.736;9.332;2023-05-10T04:19:55;14.20;1.00
20650;DHT22;10484;48.736;9.332;2023-05-10T04:22:21;14.20;1.00
20650;DHT22;10484;48.736;9.332;2023-05-10T04:24:47;14.20;1.00
20650;DHT22;10484;48.736;9.332;2023-05-10T04:27:12;14.10;1.00
20650;DHT22;10484;48.736;9.332;2023-05-10T04:29:38;14.10;1.00
20650;DHT22;10484;48.736;9.332;2023-05-10T04:32:03;14.10;1.00
20650;DHT22;10484;48.736;9.332;2023-05-10T04:34:29;14.10;1.00
20650;DHT22;10484;48.736;9.332;2023-05-10T04:36:55;14.10;1.00
20650;DHT22;10484;48.736;9.332;2023-05-10T04:39:20;14.10;1.00
20650;DHT22;10484;48.736;9.332;2023-05-10T04:41:46;14.10;1.00
20650;DHT22;10484;48.736;9.332;2023-05-10T04:44:11;14.10;1.00
20650;DHT22;10484;48.736;9.332;2023-05-10T04:46:37;14.10;1.00
20650;DHT22;10484;48.736;9.332;2023-05-10T04:49:02;14.10;1.00
20650;DHT22;10484;48.736;9.332;2023-05-10T04:51:28;14.10;1.00
20650;DHT22;10484;48.736;9.332;2023-05-10T04:53:54;14.10;1.00
20650;DHT22;10484;48.736;9.332;2023-05-10T04:56:19;14.10;1.00
20650;DHT22;10484;48.736;9.332;2023-05-10T04:58:45;14.10;1.00
20650;DHT22;10484;48.736;9.332;2023-05-10T05:01:11;14.10;1.00
20650;DHT22;10484;48.736;9.332;2023-05-10T05:03:37;14.10;1.00
20650;DHT22;10484;48.736;9.332;2023-05-10T05:06:03;14.10;1.00
20650;DHT22;10484;48.736;9.332;2023-05-10T05:08:28;14.10;1.00
20650;DHT22;10484;48.736;9.332;2023-05-10T05:10:54;14.10;1.00
20650;DHT22;10484;48.736;9.332;2023-05-10T05:13:20;14.10;1.00
20650;DHT22;10484;48.736;9.332;2023-05-10T05:15:45;14.20;1.00
20650;DHT22;10484;48.736;9.332;2023-05-10T05:18:11;14.20;1.00
20650;DHT22;10484;48.736;9.332;2023-05-10T05:20:37;14.20;1.00
20650;DHT22;10484;48.736;9.332;2023-05-10T05:23:02;14.20;1.00
20650;DHT22;10484;48.736;9.332;2023-05-10T05:25:28;14.20;1.00
20650;DHT22;10484;48.736;9.332;2023-05-10T05:27:53;14.20;1.00
20650;DHT22;10484;48.736;9.332;2023-05-10T05:30:19;14.20;1.00
20650;DHT22;10484;48.736;9.332;2023-05-10T05:32:45;14.20;1.00
20650;DHT22;10484;48.736;9.332;2023-05-10T05:35:12;14.20;1.00
20650;DHT22;10484;48.736;9.332;2023-05-10T05:37:37;14.20;1.00
20650;DHT22;10484;48.736;9.332;2023-05-10T05:40:04;14.20;1.00
20650;DHT22;10484;48.736;9.332;2023-05-10T05:42:30;14.20;1.00
20650;DHT22;10484;48.736;9.332;2023-05-10T05:44:57;14.30;1.00
20650;DHT22;10484;48.736;9.332;2023-05-10T05:47:22;14.30;1.00
20650;DHT22;10484;48.736;9.332;2023-05-10T05:49:48;14.20;1.00
20650;DHT22;10484;48.736;9.332;2023-05-10T05:52:14;14.30;1.00
20650;DHT22;10484;48.736;9.332;2023-05-10T05:54:39;14.30;1.00
20650;DHT22;10484;48.736;9.332;2023-05-10T05:57:05;14.30;1.00
20650;DHT22;10484;48.736;9.332;2023-05-10T05:59:31;14.30;1.00
20650;DHT22;10484;48.736;9.332;2023-05-10T06:01:56;14.30;1.00
20650;DHT22;10484;48.736;9.332;2023-05-10T06:04:22;14.40;1.00
20650;DHT22;10484;48.736;9.332;2023-05-10T06:06:47;14.30;1.00
20650;DHT22;10484;48.736;9.332;2023-05-10T06:09:13;14.30;1.00
20650;DHT22;10484;48.736;9.332;2023-05-10T06:11:38;14.30;1.00
20650;DHT22;10484;48.736;9.332;2023-05-10T06:14:04;14.30;1.00
20650;DHT22;10484;48.736;9.332;2023-05-10T06:16:32;14.40;1.00
20650;DHT22;10484;48.736;9.332;2023-05-10T06:18:58;14.30;1.00
20650;DHT22;10484;48.736;9.332;2023-05-10T06:21:23;14.30;1.00
20650;DHT22;10484;48.736;9.332;2023-05-10T06:23:49;14.40;1.00
20650;DHT22;10484;48.736;9.332;2023-05-10T06:26:14;14.40;1.00
20650;DHT22;10484;48.736;9.332;2023-05-10T06:28:40;14.40;1.00
20650;DHT22;10484;48.736;9.332;2023-05-10T06:31:06;14.40;1.00
20650;DHT22;10484;48.736;9.332;2023-05-10T06:33:32;14.40;1.00
20650;DHT22;10484;48.736;9.332;2023-05-10T06:35:58;14.40;1.00
20650;DHT22;10484;48.736;9.332;2023-05-10T06:38:23;14.50;1.00
20650;DHT22;10484;48.736;9.332;2023-05-10T06:40:49;14.40;1.00
20650;DHT22;10484;48.736;9.332;2023-05-10T06:43:15;14.40;1.00
20650;DHT22;10484;48.736;9.332;2023-05-10T06:45:41;14.40;1.00
20650;DHT22;10484;48.736;9.332;2023-05-10T06:48:07;14.40;1.00
20650;DHT22;10484;48.736;9.332;2023-05-10T06:50:33;14.50;1.00
20650;DHT22;10484;48.736;9.332;2023-05-10T06:52:59;14.50;1.00
20650;DHT22;10484;48.736;9.332;2023-05-10T06:55:25;14.50;1.00
20650;DHT22;10484;48.736;9.332;2023-05-10T06:57:51;14.50;1.00
20650;DHT22;10484;48.736;9.332;2023-05-10T07:00:17;14.50;1.00
20650;DHT22;10484;48.736;9.332;2023-05-10T07:02:43;14.50;1.00
20650;DHT22;10484;48.736;9.332;2023-05-10T07:05:09;14.50;1.00
20650;DHT22;10484;48.736;9.332;2023-05-10T07:07:34;14.50;1.00
20650;DHT22;10484;48.736;9.332;2023-05-10T07:10:00;14.50;1.00
20650;DHT22;10484;48.736;9.332;2023-05-10T07:12:26;14.50;1.00
20650;DHT22;10484;48.736;9.332;2023-05-10T07:14:51;14.50;1.00
20650;DHT22;10484;48.736;9.332;2023-05-10T07:17:17;14.50;1.00
20650;DHT22;10484;48.736;9.332;2023-05-10T07:19:43;14.50;1.00
20650;DHT22;10484;48.736;9.332;2023-05-10T07:22:09;14.50;1.00
20650;DHT22;10484;48.736;9.332;2023-05-10T07:24:34;14.50;1.00
20650;DHT22;10484;48.736;9.332;2023-05-10T07:27:00;14.50;1.00
20650;DHT22;10484;48.736;9.332;2023-05-10T07:29:26;14.50;1.00
20650;DHT22;10484;48.736;9.332;2023-05-10T07:31:51;14.60;1.00
20650;DHT22;10484;48.736;9.332;2023-05-10T07:34:17;14.50;1.00
20650;DHT22;10484;48.736;9.332;2023-05-10T07:36:42;14.60;1.00
20650;DHT22;10484;48.736;9.332;2023-05-10T07:39:08;14.60;1.00
20650;DHT22;10484;48.736;9.332;2023-05-10T07:41:34;14.60;1.00
20650;DHT22;10484;48.736;9.332;2023-05-10T07:43:59;14.60;1.00
20650;DHT22;10484;48.736;9.332;2023-05-10T07:46:25;14.70;1.00
20650;DHT22;10484;48.736;9.332;2023-05-10T07:48:51;14.70;1.00
20650;DHT22;10484;48.736;9.332;2023-05-10T07:51:16;14.70;1.00
20650;DHT22;10484;48.736;9.332;2023-05-10T07:53:42;14.70;1.00
20650;DHT22;10484;48.736;9.332;2023-05-10T07:56:26;14.70;1.00
20650;DHT22;10484;48.736;9.332;2023-05-10T07:58:55;14.80;1.00
20650;DHT22;10484;48.736;9.332;2023-05-10T08:01:21;14.80;1.00
20650;DHT22;10484;48.736;9.332;2023-05-10T08:03:47;14.80;1.00
20650;DHT22;10484;48.736;9.332;2023-05-10T08:06:13;14.80;1.00
20650;DHT22;10484;48.736;9.332;2023-05-10T08:08:38;14.80;1.00
20650;DHT22;10484;48.736;9.332;2023-05-10T08:11:04;14.80;1.00
20650;DHT22;10484;48.736;9.332;2023-05-10T08:13:29;14.80;1.00
20650;DHT22;10484;48.736;9.332;2023-05-10T08:15:56;14.90;1.00
20650;DHT22;10484;48.736;9.332;2023-05-10T08:18:22;14.90;1.00
20650;DHT22;10484;48.736;9.332;2023-05-10T08:20:47;14.90;1.00
20650;DHT22;10484;48.736;9.332;2023-05-10T08:23:13;14.80;1.00
20650;DHT22;10484;48.736;9.332;2023-05-10T08:25:39;14.90;1.00
20650;DHT22;10484;48.736;9.332;2023-05-10T08:28:05;14.90;1.00
20650;DHT22;10484;48.736;9.332;2023-05-10T08:30:30;14.90;1.00
20650;DHT22;10484;48.736;9.332;2023-05-10T08:32:56;14.90;1.00
20650;DHT22;10484;48.736;9.332;2023-05-10T08:35:21;14.90;1.00
20650;DHT22;10484;48.736;9.332;2023-05-10T08:37:47;14.90;1.00
20650;DHT22;10484;48.736;9.332;2023-05-10T08:40:13;15.00;1.00
20650;DHT22;10484;48.736;9.332;2023-05-10T08:42:42;15.00;1.00
20650;DHT22;10484;48.736;9.332;2023-05-10T08:45:10;15.00;1.00
20650;DHT22;10484;48.736;9.332;2023-05-10T08:47:36;15.00;1.00
20650;DHT22;10484;48.736;9.332;2023-05-10T08:50:03;15.00;1.00
20650;DHT22;10484;48.736;9.332;2023-05-10T08:52:30;15.00;1.00
20650;DHT22;10484;48.736;9.332;2023-05-10T08:54:56;15.00;1.00
20650;DHT22;10484;48.736;9.332;2023-05-10T08:57:22;15.10;1.00
20650;DHT22;10484;48.736;9.332;2023-05-10T08:59:47;15.10;1.00
20650;DHT22;10484;48.736;9.332;2023-05-10T09:02:13;15.10;1.00
20650;DHT22;10484;48.736;9.332;2023-05-10T09:04:39;15.10;1.00
20650;DHT22;10484;48.736;9.332;2023-05-10T09:07:06;15.10;1.00
20650;DHT22;10484;48.736;9.332;2023-05-10T09:09:33;15.20;1.00
20650;DHT22;10484;48.736;9.332;2023-05-10T09:11:59;15.20;1.00
20650;DHT22;10484;48.736;9.332;2023-05-10T09:14:25;15.20;1.00
20650;DHT22;10484;48.736;9.332;2023-05-10T09:16:51;15.20;1.00
20650;DHT22;10484;48.736;9.332;2023-05-10T09:19:17;15.20;1.00
20650;DHT22;10484;48.736;9.332;2023-05-10T09:21:43;15.30;1.00
20650;DHT22;10484;48.736;9.332;2023-05-10T09:24:09;15.30;1.00
20650;DHT22;10484;48.736;9.332;2023-05-10T09:26:35;15.30;1.00
20650;DHT22;10484;48.736;9.332;2023-05-10T09:29:01;15.40;1.00
20650;DHT22;10484;48.736;9.332;2023-05-10T09:31:44;15.30;1.00
20650;DHT22;10484;48.736;9.332;2023-05-10T09:34:11;15.40;1.00
20650;DHT22;10484;48.736;9.332;2023-05-10T09:37:09;15.40;1.00
20650;DHT22;10484;48.736;9.332;2023-05-10T09:39:37;15.40;1.00
20650;DHT22;10484;48.736;9.332;2023-05-10T09:42:09;15.40;1.00
20650;DHT22;10484;48.736;9.332;2023-05-10T09:44:35;15.40;1.00
20650;DHT22;10484;48.736;9.332;2023-05-10T09:47:02;15.40;1.00
20650;DHT22;10484;48.736;9.332;2023-05-10T09:49:28;15.40;1.00
20650;DHT22;10484;48.736;9.332;2023-05-10T09:52:05;15.40;1.00
20650;DHT22;10484;48.736;9.332;2023-05-10T09:54:31;15.40;1.00
20650;DHT22;10484;48.736;9.332;2023-05-10T09:56:57;15.30;1.00
20650;DHT22;10484;48.736;9.332;2023-05-10T09:59:25;15.30;1.00
20650;DHT22;10484;48.736;9.332;2023-05-10T10:01:52;15.30;1.00
20650;DHT22;10484;48.736;9.332;2023-05-10T10:04:18;15.30;1.00
20650;DHT22;10484;48.736;9.332;2023-05-10T10:06:45;15.30;1.00
20650;DHT22;10484;48.736;9.332;2023-05-10T10:09:10;15.40;1.00
20650;DHT22;10484;48.736;9.332;2023-05-10T10:11:37;15.30;1.00
20650;DHT22;10484;48.736;9.332;2023-05-10T10:14:04;15.40;1.00
20650;DHT22;10484;48.736;9.332;2023-05-10T10:16:30;15.40;1.00
20650;DHT22;10484;48.736;9.332;2023-05-10T10:18:56;15.40;1.00
20650;DHT22;10484;48.736;9.332;2023-05-10T10:21:22;15.40;1.00
20650;DHT22;10484;48.736;9.332;2023-05-10T10:23:48;15.50;1.00
20650;DHT22;10484;48.736;9.332;2023-05-10T10:26:15;15.50;1.00
20650;DHT22;10484;48.736;9.332;2023-05-10T10:31:36;15.60;1.00
20650;DHT22;10484;48.736;9.332;2023-05-10T10:34:09;15.60;1.00
20650;DHT22;10484;48.736;9.332;2023-05-10T10:36:44;15.70;1.00
20650;DHT22;10484;48.736;9.332;2023-05-10T10:39:11;15.80;1.00
20650;DHT22;10484;48.736;9.332;2023-05-10T10:49:41;16.00;1.00
20650;DHT22;10484;48.736;9.332;2023-05-10T10:52:27;16.00;1.00
20650;DHT22;10484;48.736;9.332;2023-05-10T11:05:48;15.90;1.00
20650;DHT22;10484;48.736;9.332;2023-05-10T11:08:28;16.00;1.00
20650;DHT22;10484;48.736;9.332;2023-05-10T11:13:42;16.00;1.00
20650;DHT22;10484;48.736;9.332;2023-05-10T11:16:16;16.00;1.00
20650;DHT22;10484;48.736;9.332;2023-05-10T11:19:15;16.00;1.00
20650;DHT22;10484;48.736;9.332;2023-05-10T11:22:11;16.00;1.00
20650;DHT22;10484;48.736;9.332;2023-05-10T11:24:38;16.00;1.00
20650;DHT22;10484;48.736;9.332;2023-05-10T11:27:03;16.00;1.00
20650;DHT22;10484;48.736;9.332;2023-05-10T11:29:29;16.00;1.00
20650;DHT22;10484;48.736;9.332;2023-05-10T11:31:58;15.90;1.00
20650;DHT22;10484;48.736;9.332;2023-05-10T11:34:28;15.90;1.00
20650;DHT22;10484;48.736;9.332;2023-05-10T11:37:00;15.80;1.00
20650;DHT22;10484;48.736;9.332;2023-05-10T11:39:30;15.80;1.00
20650;DHT22;10484;48.736;9.332;2023-05-10T11:41:58;15.70;1.00
20650;DHT22;10484;48.736;9.332;2023-05-10T11:44:30;15.60;1.00
20650;DHT22;10484;48.736;9.332;2023-05-10T11:47:01;15.60;1.00
20650;DHT22;10484;48.736;9.332;2023-05-10T11:49:27;15.60;1.00
20650;DHT22;10484;48.736;9.332;2023-05-10T11:51:53;15.50;1.00
20650;DHT22;10484;48.736;9.332;2023-05-10T11:54:28;15.50;1.00
20650;DHT22;10484;48.736;9.332;2023-05-10T11:56:54;15.50;1.00
20650;DHT22;10484;48.736;9.332;2023-05-10T11:59:19;15.60;1.00
20650;DHT22;10484;48.736;9.332;2023-05-10T12:01:45;15.60;1.00
20650;DHT22;10484;48.736;9.332;2023-05-10T12:04:11;15.60;1.00
20650;DHT22;10484;48.736;9.332;2023-05-10T12:06:39;15.60;1.00
20650;DHT22;10484;48.736;9.332;2023-05-10T12:09:06;15.70;1.00
20650;DHT22;10484;48.736;9.332;2023-05-10T12:11:37;15.60;1.00
20650;DHT22;10484;48.736;9.332;2023-05-10T12:14:04;15.70;1.00
20650;DHT22;10484;48.736;9.332;2023-05-10T12:16:30;15.60;1.00
20650;DHT22;10484;48.736;9.332;2023-05-10T12:18:57;15.60;1.00
20650;DHT22;10484;48.736;9.332;2023-05-10T12:21:24;15.60;1.00
20650;DHT22;10484;48.736;9.332;2023-05-10T12:24:03;15.60;1.00
20650;DHT22;10484;48.736;9.332;2023-05-10T12:26:30;15.60;1.00
20650;DHT22;10484;48.736;9.332;2023-05-10T12:29:15;15.50;1.00
20650;DHT22;10484;48.736;9.332;2023-05-10T12:31:58;15.50;1.00
20650;DHT22;10484;48.736;9.332;2023-05-10T12:34:31;15.60;1.00
20650;DHT22;10484;48.736;9.332;2023-05-10T12:36:58;15.60;1.00
20650;DHT22;10484;48.736;9.332;2023-05-10T12:39:24;15.60;1.00
20650;DHT22;10484;48.736;9.332;2023-05-10T12:41:50;15.70;1.00
20650;DHT22;10484;48.736;9.332;2023-05-10T12:44:16;15.70;1.00
20650;DHT22;10484;48.736;9.332;2023-05-10T12:46:42;15.70;1.00
20650;DHT22;10484;48.736;9.332;2023-05-10T12:49:08;15.70;1.00
20650;DHT22;10484;48.736;9.332;2023-05-10T12:51:34;15.70;1.00
20650;DHT22;10484;48.736;9.332;2023-05-10T12:53:59;15.80;1.00
20650;DHT22;10484;48.736;9.332;2023-05-10T12:56:25;15.80;1.00
20650;DHT22;10484;48.736;9.332;2023-05-10T12:58:52;15.80;1.00
20650;DHT22;10484;48.736;9.332;2023-05-10T13:01:17;15.80;1.00
20650;DHT22;10484;48.736;9.332;2023-05-10T13:03:43;15.80;1.00
20650;DHT22;10484;48.736;9.332;2023-05-10T13:06:09;15.80;1.00
20650;DHT22;10484;48.736;9.332;2023-05-10T13:08:34;15.80;1.00
20650;DHT22;10484;48.736;9.332;2023-05-10T13:11:01;15.80;1.00
20650;DHT22;10484;48.736;9.332;2023-05-10T13:13:27;15.80;1.00
20650;DHT22;10484;48.736;9.332;2023-05-10T13:15:52;15.70;1.00
20650;DHT22;10484;48.736;9.332;2023-05-10T13:18:18;15.70;1.00
20650;DHT22;10484;48.736;9.332;2023-05-10T13:20:43;15.70;1.00
20650;DHT22;10484;48.736;9.332;2023-05-10T13:23:10;15.60;1.00
20650;DHT22;10484;48.736;9.332;2023-05-10T13:25:35;15.50;1.00
20650;DHT22;10484;48.736;9.332;2023-05-10T13:28:02;15.50;1.00
20650;DHT22;10484;48.736;9.332;2023-05-10T13:30:27;15.40;1.00
20650;DHT22;10484;48.736;9.332;2023-05-10T13:32:54;15.40;1.00
20650;DHT22;10484;48.736;9.332;2023-05-10T13:35:20;15.50;1.00
20650;DHT22;10484;48.736;9.332;2023-05-10T13:37:45;15.40;1.00
20650;DHT22;10484;48.736;9.332;2023-05-10T13:40:11;15.40;1.00
20650;DHT22;10484;48.736;9.332;2023-05-10T13:42:37;15.40;1.00
20650;DHT22;10484;48.736;9.332;2023-05-10T13:45:03;15.40;1.00
20650;DHT22;10484;48.736;9.332;2023-05-10T13:47:28;15.50;1.00
20650;DHT22;10484;48.736;9.332;2023-05-10T13:49:54;15.50;1.00
20650;DHT22;10484;48.736;9.332;2023-05-10T13:52:20;15.60;1.00
20650;DHT22;10484;48.736;9.332;2023-05-10T13:54:45;15.60;1.00
20650;DHT22;10484;48.736;9.332;2023-05-10T13:57:11;15.50;1.00
20650;DHT22;10484;48.736;9.332;2023-05-10T13:59:39;15.60;1.00
20650;DHT22;10484;48.736;9.332;2023-05-10T14:02:05;15.60;1.00
20650;DHT22;10484;48.736;9.332;2023-05-10T14:04:31;15.60;1.00
20650;DHT22;10484;48.736;9.332;2023-05-10T14:06:57;15.70;1.00
20650;DHT22;10484;48.736;9.332;2023-05-10T14:09:22;15.70;1.00
20650;DHT22;10484;48.736;9.332;2023-05-10T14:11:48;15.80;1.00
20650;DHT22;10484;48.736;9.332;2023-05-10T14:14:14;15.70;1.00
20650;DHT22;10484;48.736;9.332;2023-05-10T14:16:42;15.80;1.00
20650;DHT22;10484;48.736;9.332;2023-05-10T14:19:08;15.80;1.00
20650;DHT22;10484;48.736;9.332;2023-05-10T14:21:34;15.80;1.00
20650;DHT22;10484;48.736;9.332;2023-05-10T14:23:59;15.80;1.00
20650;DHT22;10484;48.736;9.332;2023-05-10T14:26:25;15.90;1.00
20650;DHT22;10484;48.736;9.332;2023-05-10T14:28:51;15.90;1.00
20650;DHT22;10484;48.736;9.332;2023-05-10T14:31:17;15.90;1.00
20650;DHT22;10484;48.736;9.332;2023-05-10T14:33:46;15.90;1.00
20650;DHT22;10484;48.736;9.332;2023-05-10T14:36:11;15.90;1.00
20650;DHT22;10484;48.736;9.332;2023-05-10T14:38:37;15.90;1.00
20650;DHT22;10484;48.736;9.332;2023-05-10T14:41:02;16.00;1.00
20650;DHT22;10484;48.736;9.332;2023-05-10T14:43:28;16.00;1.00
20650;DHT22;10484;48.736;9.332;2023-05-10T14:45:54;16.00;1.00
20650;DHT22;10484;48.736;9.332;2023-05-10T14:48:19;16.00;1.00
20650;DHT22;10484;48.736;9.332;2023-05-10T14:50:46;16.00;1.00
20650;DHT22;10484;48.736;9.332;2023-05-10T14:53:12;16.00;1.00
20650;DHT22;10484;48.736;9.332;2023-05-10T14:55:37;16.00;1.00
20650;DHT22;10484;48.736;9.332;2023-05-10T14:58:04;16.00;1.00
20650;DHT22;10484;48.736;9.332;2023-05-10T15:00:30;16.00;1.00
20650;DHT22;10484;48.736;9.332;2023-05-10T15:02:55;16.10;1.00
20650;DHT22;10484;48.736;9.332;2023-05-10T15:05:21;16.10;1.00
20650;DHT22;10484;48.736;9.332;2023-05-10T15:07:47;16.10;1.00
20650;DHT22;10484;48.736;9.332;2023-05-10T15:10:13;16.10;1.00
20650;DHT22;10484;48.736;9.332;2023-05-10T15:12:39;16.10;1.00
20650;DHT22;10484;48.736;9.332;2023-05-10T15:15:05;16.10;1.00
20650;DHT22;10484;48.736;9.332;2023-05-10T15:17:31;16.10;1.00
20650;DHT22;10484;48.736;9.332;2023-05-10T15:19:57;16.10;1.00
20650;DHT22;10484;48.736;9.332;2023-05-10T15:22:22;16.20;1.00
20650;DHT22;10484;48.736;9.332;2023-05-10T15:24:48;16.20;1.00
20650;DHT22;10484;48.736;9.332;2023-05-10T15:27:13;16.20;1.00
20650;DHT22;10484;48.736;9.332;2023-05-10T15:29:39;16.20;1.00
20650;DHT22;10484;48.736;9.332;2023-05-10T15:32:05;16.20;1.00
20650;DHT22;10484;48.736;9.332;2023-05-10T15:34:30;16.20;1.00
20650;DHT22;10484;48.736;9.332;2023-05-10T15:36:56;16.20;1.00
20650;DHT22;10484;48.736;9.332;2023-05-10T15:39:22;16.20;1.00
20650;DHT22;10484;48.736;9.332;2023-05-10T15:41:47;16.20;1.00
20650;DHT22;10484;48.736;9.332;2023-05-10T15:44:13;16.20;1.00
20650;DHT22;10484;48.736;9.332;2023-05-10T15:46:38;16.20;1.00
20650;DHT22;10484;48.736;9.332;2023-05-10T15:49:04;16.20;1.00
20650;DHT22;10484;48.736;9.332;2023-05-10T15:51:31;16.20;1.00
20650;DHT22;10484;48.736;9.332;2023-05-10T15:53:58;16.20;1.00
20650;DHT22;10484;48.736;9.332;2023-05-10T15:56:23;16.20;1.00
20650;DHT22;10484;48.736;9.332;2023-05-10T15:58:49;16.20;1.00
20650;DHT22;10484;48.736;9.332;2023-05-10T16:01:15;16.20;1.00
20650;DHT22;10484;48.736;9.332;2023-05-10T16:03:41;16.30;1.00
20650;DHT22;10484;48.736;9.332;2023-05-10T16:06:07;16.30;1.00
20650;DHT22;10484;48.736;9.332;2023-05-10T16:08:33;16.30;1.00
20650;DHT22;10484;48.736;9.332;2023-05-10T16:11:02;16.40;1.00
20650;DHT22;10484;48.736;9.332;2023-05-10T16:13:28;16.40;1.00
20650;DHT22;10484;48.736;9.332;2023-05-10T16:15:53;16.40;1.00
20650;DHT22;10484;48.736;9.332;2023-05-10T16:18:19;16.30;1.00
20650;DHT22;10484;48.736;9.332;2023-05-10T16:20:45;16.30;1.00
20650;DHT22;10484;48.736;9.332;2023-05-10T16:23:11;16.30;1.00
20650;DHT22;10484;48.736;9.332;2023-05-10T16:25:38;16.30;1.00